createdAt,value
2018-09-29T00:01:05.723Z,3.13
2018-09-29T00:03:34.496Z,3.07
2018-09-29T00:06:03.178Z,3.57
2018-09-29T00:08:32.301Z,3.37
2018-09-29T00:11:01.159Z,2.90
2018-09-29T00:13:29.842Z,3.23
2018-09-29T00:15:59.067Z,3.13
2018-09-29T00:18:28.274Z,3.40
2018-09-29T00:20:57.314Z,3.47
2018-09-29T00:23:26.258Z,3.52
2018-09-29T00:25:55.118Z,3.50
2018-09-29T00:28:23.797Z,3.43
2018-09-29T00:30:52.483Z,3.60
2018-09-29T00:33:21.614Z,3.27
2018-09-29T00:35:50.522Z,3.20
2018-09-29T00:38:19.294Z,3.20
2018-09-29T00:40:48.705Z,3.43
2018-09-29T00:43:17.991Z,3.43
2018-09-29T00:45:46.750Z,3.33
2018-09-29T00:48:15.439Z,3.40
2018-09-29T00:50:44.262Z,3.13
2018-09-29T00:53:13.658Z,3.30
2018-09-29T00:55:42.858Z,3.30
2018-09-29T00:58:11.715Z,3.00
2018-09-29T01:00:40.506Z,3.17
2018-09-29T01:03:09.842Z,2.73
2018-09-29T01:05:39.238Z,3.30
2018-09-29T01:08:08.138Z,2.90
2018-09-29T01:10:37.530Z,3.37
2018-09-29T01:13:06.525Z,3.13
2018-09-29T01:15:35.646Z,3.47
2018-09-29T01:18:04.321Z,3.37
2018-09-29T01:20:32.982Z,3.00
2018-09-29T01:23:01.746Z,3.57
2018-09-29T01:25:30.876Z,3.27
2018-09-29T01:27:59.646Z,3.37
2018-09-29T01:30:28.554Z,4.03
2018-09-29T01:32:57.329Z,2.67
2018-09-29T01:35:26.018Z,2.97
2018-09-29T01:37:55.047Z,3.20
2018-09-29T01:40:24.127Z,3.70
2018-09-29T01:42:53.067Z,3.10
2018-09-29T01:45:22.110Z,3.13
2018-09-29T01:47:51.014Z,2.90
2018-09-29T01:50:20.711Z,2.80
2018-09-29T01:52:49.274Z,3.10
2018-09-29T01:55:17.946Z,3.00
2018-09-29T01:57:46.678Z,3.50
2018-09-29T02:00:15.765Z,3.73
2018-09-29T02:02:44.851Z,3.50
2018-09-29T02:05:14.154Z,4.07
2018-09-29T02:07:42.911Z,4.43
2018-09-29T02:10:11.642Z,4.73
2018-09-29T02:12:40.738Z,4.57
2018-09-29T02:15:09.819Z,4.53
2018-09-29T02:17:38.622Z,4.10
2018-09-29T02:20:07.496Z,5.17
2018-09-29T02:22:36.288Z,4.17
2018-09-29T02:25:05.176Z,4.73
2018-09-29T02:27:33.949Z,4.87
2018-09-29T02:30:02.684Z,4.97
2018-09-29T02:32:32.063Z,5.80
2018-09-29T02:35:01.052Z,5.77
2018-09-29T02:37:30.143Z,4.93
2018-09-29T02:39:59.135Z,4.83
2018-09-29T02:42:28.126Z,4.23
2018-09-29T02:44:57.333Z,3.90
2018-09-29T02:47:26.634Z,5.63
2018-09-29T02:49:55.534Z,3.70
2018-09-29T02:52:24.207Z,5.10
2018-09-29T02:54:52.874Z,4.80
2018-09-29T02:57:21.541Z,4.33
2018-09-29T02:59:50.674Z,4.17
2018-09-29T03:02:20.078Z,3.40
2018-09-29T03:04:49.064Z,3.63
2018-09-29T03:07:17.922Z,3.33
2018-09-29T03:09:47.262Z,3.50
2018-09-29T03:12:16.563Z,3.43
2018-09-29T03:14:45.651Z,3.60
2018-09-29T03:17:14.550Z,3.73
2018-09-29T03:19:43.134Z,3.70
2018-09-29T03:22:11.782Z,3.80
2018-09-29T03:24:40.470Z,3.95
2018-09-29T03:27:09.696Z,4.20
2018-09-29T03:29:38.898Z,4.87
2018-09-29T03:32:07.895Z,3.57
2018-09-29T03:34:36.530Z,3.63
2018-09-29T03:37:05.283Z,3.50
2018-09-29T03:39:34.661Z,3.07
2018-09-29T03:42:03.961Z,3.60
2018-09-29T03:44:32.754Z,3.57
2018-09-29T03:47:01.852Z,2.60
2018-09-29T03:49:30.842Z,3.20
2018-09-29T03:51:59.626Z,3.53
2018-09-29T03:54:28.423Z,3.10
2018-09-29T03:56:57.062Z,3.40
2018-09-29T03:59:26.607Z,2.90
2018-09-29T04:01:55.600Z,3.50
2018-09-29T04:04:24.802Z,4.00
2018-09-29T04:06:54.107Z,3.70
2018-09-29T04:09:23.500Z,3.67
2018-09-29T04:11:52.496Z,4.60
2018-09-29T04:14:21.251Z,4.20
2018-09-29T04:16:49.946Z,4.53
2018-09-29T04:19:19.377Z,8.17
2018-09-29T04:21:49.250Z,9.43
2018-09-29T04:24:18.642Z,9.00
2018-09-29T04:26:47.447Z,8.23
2018-09-29T04:29:17.502Z,8.00
2018-09-29T04:31:46.368Z,7.03
2018-09-29T04:34:15.274Z,6.17
2018-09-29T04:36:44.478Z,6.97
2018-09-29T04:39:14.431Z,6.30
2018-09-29T04:41:43.696Z,6.33
2018-09-29T04:44:13.089Z,6.50
2018-09-29T04:46:43.014Z,7.17
2018-09-29T04:49:12.240Z,7.17
2018-09-29T04:51:41.093Z,7.30
2018-09-29T04:54:10.047Z,7.80
2018-09-29T04:56:38.977Z,7.13
2018-09-29T04:59:08.277Z,8.33
2018-09-29T05:01:37.483Z,7.57
2018-09-29T05:04:06.435Z,7.20
2018-09-29T05:06:35.367Z,7.47
2018-09-29T05:09:05.014Z,7.73
2018-09-29T05:11:33.861Z,8.53
2018-09-29T05:14:02.752Z,7.97
2018-09-29T05:16:32.152Z,8.50
2018-09-29T05:19:00.926Z,9.57
2018-09-29T05:21:29.607Z,9.07
2018-09-29T05:23:58.327Z,9.03
2018-09-29T05:26:27.718Z,8.57
2018-09-29T05:28:56.406Z,8.57
2018-09-29T05:31:25.398Z,8.63
2018-09-29T05:33:54.311Z,8.33
2018-09-29T05:36:22.985Z,9.23
2018-09-29T05:38:51.959Z,8.53
2018-09-29T05:41:20.978Z,7.07
2018-09-29T05:43:49.847Z,7.57
2018-09-29T05:46:18.602Z,7.70
2018-09-29T05:48:47.839Z,7.27
2018-09-29T05:51:16.603Z,6.93
2018-09-29T05:53:45.522Z,8.00
2018-09-29T05:56:14.307Z,7.60
2018-09-29T05:58:42.987Z,7.30
2018-09-29T06:01:11.683Z,7.63
2018-09-29T06:03:40.779Z,7.50
2018-09-29T06:06:09.627Z,7.17
2018-09-29T06:08:38.349Z,7.62
2018-09-29T06:11:07.018Z,7.63
2018-09-29T06:13:36.137Z,7.10
2018-09-29T06:16:04.767Z,7.10
2018-09-29T06:18:33.908Z,7.40
2018-09-29T06:21:02.823Z,8.10
2018-09-29T06:23:31.662Z,9.07
2018-09-29T06:26:00.795Z,7.43
2018-09-29T06:28:29.690Z,7.53
2018-09-29T06:30:58.322Z,7.53
2018-09-29T06:33:27.066Z,7.53
2018-09-29T06:35:56.146Z,7.20
2018-09-29T06:38:25.043Z,7.17
2018-09-29T06:40:54.148Z,8.17
2018-09-29T06:43:23.532Z,7.47
2018-09-29T06:45:52.430Z,7.83
2018-09-29T06:48:21.390Z,8.43
2018-09-29T06:50:50.466Z,8.03
2018-09-29T06:53:19.305Z,8.37
2018-09-29T06:55:48.095Z,8.80
2018-09-29T06:58:16.966Z,10.03
2018-09-29T07:00:45.699Z,9.33
2018-09-29T07:03:14.375Z,9.37
2018-09-29T07:05:43.192Z,10.40
2018-09-29T07:08:12.055Z,9.80
2018-09-29T07:10:41.078Z,9.97
2018-09-29T07:13:09.914Z,11.03
2018-09-29T07:15:39.226Z,11.17
2018-09-29T07:18:08.207Z,10.10
2018-09-29T07:20:37.022Z,10.03
2018-09-29T07:23:06.242Z,10.37
2018-09-29T07:25:35.033Z,10.33
2018-09-29T07:28:03.826Z,12.00
2018-09-29T07:30:33.384Z,11.33
2018-09-29T07:33:01.959Z,9.70
2018-09-29T07:35:30.851Z,9.40
2018-09-29T07:37:59.749Z,10.63
2018-09-29T07:40:28.530Z,10.13
2018-09-29T07:42:57.141Z,10.13
2018-09-29T07:45:25.752Z,11.57
2018-09-29T07:47:54.331Z,10.43
2018-09-29T07:50:22.859Z,9.10
2018-09-29T07:52:51.444Z,10.30
2018-09-29T07:55:20.090Z,9.67
2018-09-29T07:57:48.626Z,9.60
2018-09-29T08:00:17.378Z,10.87
2018-09-29T08:02:46.266Z,10.63
2018-09-29T08:05:14.786Z,10.13
2018-09-29T08:07:43.362Z,11.33
2018-09-29T08:10:12.467Z,10.88
2018-09-29T08:12:41.847Z,10.43
2018-09-29T08:15:10.650Z,10.40
2018-09-29T08:17:39.287Z,8.77
2018-09-29T08:20:07.858Z,8.23
2018-09-29T08:22:36.419Z,9.23
2018-09-29T08:25:05.338Z,9.38
2018-09-29T08:27:33.944Z,9.45
2018-09-29T08:30:02.587Z,10.20
2018-09-29T08:32:31.169Z,10.08
2018-09-29T08:34:59.834Z,9.90
2018-09-29T08:37:29.118Z,9.83
2018-09-29T08:39:57.939Z,10.20
2018-09-29T08:42:26.486Z,10.40
2018-09-29T08:44:55.115Z,9.98
2018-09-29T08:47:23.686Z,9.05
2018-09-29T08:49:52.219Z,8.50
2018-09-29T08:52:20.738Z,8.88
2018-09-29T08:54:49.418Z,8.35
2018-09-29T08:57:18.434Z,7.50
2018-09-29T08:59:47.124Z,6.97
2018-09-29T09:02:15.724Z,7.58
2018-09-29T09:04:44.319Z,7.72
2018-09-29T09:07:12.850Z,7.90
2018-09-29T09:09:41.463Z,6.33
2018-09-29T09:12:10.083Z,5.45
2018-09-29T09:14:38.632Z,5.45
2018-09-29T09:17:07.231Z,4.20
2018-09-29T09:19:35.817Z,4.20
2018-09-29T09:22:04.370Z,3.67
2018-09-29T09:24:32.966Z,3.77
2018-09-29T09:27:01.521Z,4.53
2018-09-29T09:29:30.083Z,4.53
2018-09-29T09:32:01.398Z,3.50
2018-09-29T09:34:30.088Z,2.98
2018-09-29T09:37:02.354Z,3.40
2018-09-29T09:39:32.827Z,2.98
2018-09-29T09:42:01.659Z,3.05
2018-09-29T09:44:30.799Z,3.08
2018-09-29T09:46:59.615Z,3.37
2018-09-29T09:49:28.266Z,2.75
2018-09-29T09:51:56.979Z,3.10
2018-09-29T09:54:25.543Z,3.02
2018-09-29T09:56:55.272Z,2.85
2018-09-29T09:59:24.546Z,2.87
2018-09-29T10:01:59.550Z,3.00
2018-09-29T10:04:28.211Z,3.10
2018-09-29T10:06:56.794Z,2.90
2018-09-29T10:09:25.367Z,3.27
2018-09-29T10:11:54.444Z,3.05
2018-09-29T10:14:23.018Z,2.80
2018-09-29T10:16:51.551Z,3.30
2018-09-29T10:19:20.966Z,3.00
2018-09-29T10:21:49.560Z,2.72
2018-09-29T10:24:18.128Z,2.85
2018-09-29T10:26:46.721Z,2.90
2018-09-29T10:29:15.287Z,3.10
2018-09-29T10:31:43.862Z,2.80
2018-09-29T10:34:12.382Z,2.58
2018-09-29T10:36:40.958Z,2.80
2018-09-29T10:39:11.116Z,2.98
2018-09-29T10:41:39.974Z,2.87
2018-09-29T10:44:08.950Z,2.72
2018-09-29T10:46:37.590Z,2.62
2018-09-29T10:49:06.169Z,2.62
2018-09-29T10:51:34.718Z,2.95
2018-09-29T10:54:03.331Z,2.90
2018-09-29T10:56:31.922Z,3.12
2018-09-29T10:59:00.941Z,2.72
2018-09-29T11:01:30.931Z,3.00
2018-09-29T11:03:59.464Z,2.62
2018-09-29T11:06:28.059Z,3.15
2018-09-29T11:08:56.687Z,2.58
2018-09-29T11:11:26.319Z,2.60
2018-09-29T11:13:55.487Z,2.75
2018-09-29T11:16:25.397Z,2.87
2018-09-29T11:18:54.089Z,2.62
2018-09-29T11:21:22.777Z,2.62
2018-09-29T11:23:51.768Z,2.65
2018-09-29T11:26:20.544Z,2.70
2018-09-29T11:28:52.856Z,2.40
2018-09-29T11:31:25.158Z,2.60
2018-09-29T11:33:55.841Z,2.30
2018-09-29T11:36:25.337Z,2.52
2018-09-29T11:38:54.336Z,2.85
2018-09-29T11:41:23.950Z,2.72
2018-09-29T11:43:53.841Z,3.25
2018-09-29T11:46:24.282Z,2.35
2018-09-29T11:48:53.373Z,2.30
2018-09-29T11:51:22.392Z,2.87
2018-09-29T11:53:50.951Z,2.40
2018-09-29T11:56:20.094Z,2.40
2018-09-29T11:58:48.730Z,2.22
2018-09-29T12:01:17.724Z,2.42
2018-09-29T12:03:47.237Z,2.50
2018-09-29T12:06:16.563Z,2.72
2018-09-29T12:08:45.687Z,3.20
2018-09-29T12:11:14.530Z,2.50
2018-09-29T12:13:43.754Z,2.52
2018-09-29T12:16:12.714Z,2.30
2018-09-29T12:18:43.404Z,2.60
2018-09-29T12:21:13.364Z,3.20
2018-09-29T12:23:43.338Z,2.85
2018-09-29T12:26:13.810Z,2.72
2018-09-29T12:28:46.028Z,2.70
2018-09-29T12:31:18.296Z,2.45
2018-09-29T12:33:48.819Z,2.30
2018-09-29T12:36:18.974Z,2.60
2018-09-29T12:38:50.404Z,2.72
2018-09-29T12:41:19.611Z,2.70
2018-09-29T12:43:49.733Z,3.10
2018-09-29T12:46:19.919Z,2.80
2018-09-29T12:48:50.667Z,2.60
2018-09-29T12:51:19.814Z,2.80
2018-09-29T12:53:49.314Z,2.80
2018-09-29T12:56:19.846Z,2.80
2018-09-29T12:58:50.385Z,2.90
2018-09-29T13:01:22.112Z,3.25
2018-09-29T13:03:52.055Z,3.02
2018-09-29T13:06:25.055Z,3.02
2018-09-29T13:08:54.149Z,3.10
2018-09-29T13:11:22.895Z,3.27
2018-09-29T13:13:53.143Z,3.47
2018-09-29T13:16:22.317Z,3.27
2018-09-29T13:18:52.134Z,3.87
2018-09-29T13:21:22.889Z,3.15
2018-09-29T13:23:52.887Z,3.50
2018-09-29T13:26:23.524Z,3.70
2018-09-29T13:28:53.343Z,3.72
2018-09-29T13:31:22.629Z,3.90
2018-09-29T13:33:53.453Z,3.12
2018-09-29T13:36:23.059Z,3.60
2018-09-29T13:38:52.822Z,3.90
2018-09-29T13:41:22.943Z,3.37
2018-09-29T13:43:51.555Z,3.60
2018-09-29T13:46:20.507Z,3.70
2018-09-29T13:48:49.090Z,4.28
2018-09-29T13:51:17.699Z,4.15
2018-09-29T13:53:47.440Z,3.60
2018-09-29T13:56:16.027Z,3.22
2018-09-29T13:58:44.576Z,3.60
2018-09-29T14:01:13.458Z,3.47
2018-09-29T14:03:42.534Z,3.60
2018-09-29T14:06:11.622Z,3.33
2018-09-29T14:08:40.564Z,3.40
2018-09-29T14:11:09.914Z,3.50
2018-09-29T14:13:39.214Z,3.37
2018-09-29T14:16:08.207Z,3.40
2018-09-29T14:18:37.572Z,4.05
2018-09-29T14:21:06.501Z,3.40
2018-09-29T14:23:36.015Z,3.10
2018-09-29T14:26:05.717Z,3.42
2018-09-29T14:28:34.691Z,2.52
2018-09-29T14:31:04.010Z,2.70
2018-09-29T14:33:33.309Z,3.08
2018-09-29T14:36:02.927Z,3.40
2018-09-29T14:38:32.179Z,3.27
2018-09-29T14:41:01.210Z,2.92
2018-09-29T14:43:30.205Z,2.15
2018-09-29T14:45:59.411Z,2.27
2018-09-29T14:48:28.371Z,2.70
2018-09-29T14:50:58.038Z,2.20
2018-09-29T14:53:26.681Z,2.50
2018-09-29T14:55:55.762Z,2.50
2018-09-29T14:58:24.646Z,2.67
2018-09-29T15:00:54.512Z,2.25
2018-09-29T15:03:23.870Z,2.75
2018-09-29T15:05:52.898Z,2.45
2018-09-29T15:08:21.811Z,2.85
2018-09-29T15:10:50.971Z,2.47
2018-09-29T15:13:19.965Z,2.35
2018-09-29T15:15:48.959Z,2.87
2018-09-29T15:18:17.743Z,2.60
2018-09-29T15:20:46.427Z,2.80
2018-09-29T15:23:15.641Z,2.30
2018-09-29T15:25:44.941Z,2.70
2018-09-29T15:28:13.730Z,3.10
2018-09-29T15:30:42.457Z,2.90
2018-09-29T15:33:11.690Z,3.08
2018-09-29T15:35:40.533Z,2.95
2018-09-29T15:38:09.589Z,3.25
2018-09-29T15:40:38.360Z,3.15
2018-09-29T15:43:07.132Z,3.35
2018-09-29T15:45:36.607Z,3.40
2018-09-29T15:48:05.871Z,3.25
2018-09-29T15:50:34.938Z,3.40
2018-09-29T15:53:03.855Z,3.60
2018-09-29T15:55:33.486Z,3.52
2018-09-29T15:58:02.234Z,3.50
2018-09-29T16:00:30.922Z,3.52
2018-09-29T16:02:59.938Z,3.12
2018-09-29T16:05:29.340Z,3.17
2018-09-29T16:07:58.242Z,2.92
2018-09-29T16:10:27.114Z,3.58
2018-09-29T16:12:56.108Z,3.40
2018-09-29T16:15:24.883Z,3.75
2018-09-29T16:17:54.094Z,3.60
2018-09-29T16:20:23.166Z,3.12
2018-09-29T16:22:52.597Z,3.43
2018-09-29T16:25:21.689Z,3.90
2018-09-29T16:27:51.002Z,3.83
2018-09-29T16:30:19.815Z,4.17
2018-09-29T16:32:49.082Z,3.87
2018-09-29T16:35:18.275Z,4.30
2018-09-29T16:37:47.268Z,4.10
2018-09-29T16:40:16.049Z,4.30
2018-09-29T16:42:44.735Z,4.08
2018-09-29T16:45:13.634Z,4.40
2018-09-29T16:47:42.933Z,4.50
2018-09-29T16:50:11.723Z,4.20
2018-09-29T16:52:40.423Z,4.10
2018-09-29T16:55:09.303Z,4.33
2018-09-29T16:57:38.420Z,4.47
2018-09-29T17:00:07.499Z,4.10
2018-09-29T17:02:36.610Z,5.30
2018-09-29T17:05:05.886Z,4.73
2018-09-29T17:07:34.687Z,5.08
2018-09-29T17:10:04.196Z,5.13
2018-09-29T17:12:33.789Z,4.97
2018-09-29T17:15:02.687Z,4.93
2018-09-29T17:17:31.774Z,5.43
2018-09-29T17:20:00.593Z,4.70
2018-09-29T17:22:29.227Z,4.73
2018-09-29T17:24:59.066Z,4.97
2018-09-29T17:27:27.834Z,4.67
2018-09-29T17:29:56.526Z,5.07
2018-09-29T17:32:25.742Z,5.20
2018-09-29T17:34:55.465Z,5.43
2018-09-29T17:37:24.238Z,5.30
2018-09-29T17:39:53.326Z,5.90
2018-09-29T17:42:22.162Z,4.93
2018-09-29T17:44:50.862Z,5.07
2018-09-29T17:47:20.490Z,5.30
2018-09-29T17:49:49.350Z,4.93
2018-09-29T17:52:18.293Z,5.00
2018-09-29T17:54:47.284Z,5.50
2018-09-29T17:57:15.973Z,4.87
2018-09-29T17:59:45.282Z,5.40
2018-09-29T18:02:14.390Z,5.50
2018-09-29T18:04:43.618Z,4.93
2018-09-29T18:07:12.498Z,4.93
2018-09-29T18:09:41.455Z,5.33
2018-09-29T18:12:10.754Z,5.33
2018-09-29T18:14:40.154Z,5.10
2018-09-29T18:17:09.452Z,4.97
2018-09-29T18:19:38.215Z,4.90
2018-09-29T18:22:07.438Z,4.73
2018-09-29T18:24:36.437Z,5.72
2018-09-29T18:27:05.530Z,5.00
2018-09-29T18:29:34.539Z,4.67
2018-09-29T18:32:04.333Z,4.93
2018-09-29T18:34:33.846Z,8.10
2018-09-29T18:37:02.939Z,7.57
2018-09-29T18:39:31.730Z,6.13
2018-09-29T18:42:00.434Z,6.20
2018-09-29T18:44:29.527Z,6.27
2018-09-29T18:46:59.120Z,5.20
2018-09-29T18:49:28.031Z,5.53
2018-09-29T18:51:56.894Z,5.13
2018-09-29T18:54:26.540Z,5.20
2018-09-29T18:56:55.266Z,4.83
2018-09-29T18:59:24.083Z,5.00
2018-09-29T19:01:53.036Z,5.60
2018-09-29T19:04:22.349Z,5.10
2018-09-29T19:06:51.787Z,5.30
2018-09-29T19:09:20.675Z,4.90
2018-09-29T19:11:49.831Z,4.83
2018-09-29T19:14:19.373Z,6.10
2018-09-29T19:16:48.268Z,5.27
2018-09-29T19:19:16.951Z,4.73
2018-09-29T19:21:46.522Z,4.93
2018-09-29T19:24:15.410Z,5.33
2018-09-29T19:26:44.956Z,4.90
2018-09-29T19:29:14.206Z,5.03
2018-09-29T19:31:43.559Z,5.60
2018-09-29T19:34:12.966Z,5.20
2018-09-29T19:36:41.611Z,5.47
2018-09-29T19:39:12.822Z,5.30
2018-09-29T19:41:45.150Z,5.60
2018-09-29T19:44:16.563Z,5.10
2018-09-29T19:46:47.048Z,4.97
2018-09-29T19:49:17.227Z,4.80
2018-09-29T19:51:46.316Z,5.53
2018-09-29T19:54:16.468Z,5.03
2018-09-29T19:56:45.473Z,5.23
2018-09-29T19:59:14.290Z,4.90
2018-09-29T20:01:45.659Z,4.93
2018-09-29T20:04:17.242Z,5.27
2018-09-29T20:06:47.727Z,5.03
2018-09-29T20:09:19.517Z,4.70
2018-09-29T20:11:50.033Z,5.53
2018-09-29T20:14:20.301Z,5.13
2018-09-29T20:16:51.482Z,5.40
2018-09-29T20:19:20.739Z,5.20
2018-09-29T20:21:49.690Z,5.80
2018-09-29T20:24:19.008Z,4.60
2018-09-29T20:26:48.478Z,4.80
2018-09-29T20:29:17.970Z,6.90
2018-09-29T20:31:46.880Z,8.87
2018-09-29T20:34:15.519Z,8.63
2018-09-29T20:36:44.423Z,7.00
2018-09-29T20:39:13.894Z,5.13
2018-09-29T20:41:43.151Z,4.50
2018-09-29T20:44:13.264Z,4.80
2018-09-29T20:46:42.007Z,4.87
2018-09-29T20:49:11.118Z,5.23
2018-09-29T20:51:40.514Z,4.53
2018-09-29T20:54:09.643Z,4.63
2018-09-29T20:56:38.286Z,4.93
2018-09-29T20:59:07.493Z,4.70
2018-09-29T21:01:37.159Z,5.07
2018-09-29T21:04:06.317Z,5.17
2018-09-29T21:06:36.194Z,4.97
2018-09-29T21:09:06.423Z,4.43
2018-09-29T21:11:35.518Z,4.93
2018-09-29T21:14:04.671Z,5.10
2018-09-29T21:16:33.411Z,5.00
2018-09-29T21:19:02.723Z,4.87
2018-09-29T21:21:31.820Z,4.40
2018-09-29T21:24:00.807Z,4.63
2018-09-29T21:26:29.638Z,4.40
2018-09-29T21:29:00.235Z,4.50
2018-09-29T21:31:29.223Z,5.07
2018-09-29T21:33:58.108Z,4.47
2018-09-29T21:36:26.861Z,5.20
2018-09-29T21:38:55.779Z,4.73
2018-09-29T21:41:24.482Z,4.70
2018-09-29T21:43:53.449Z,5.43
2018-09-29T21:46:22.664Z,5.10
2018-09-29T21:48:51.657Z,5.13
2018-09-29T21:51:20.974Z,4.80
2018-09-29T21:53:50.162Z,4.80
2018-09-29T21:56:19.250Z,4.90
2018-09-29T21:58:48.150Z,4.53
2018-09-29T22:01:22.390Z,4.70
2018-09-29T22:03:51.453Z,5.40
2018-09-29T22:06:20.258Z,4.87
2018-09-29T22:08:48.906Z,5.20
2018-09-29T22:11:17.638Z,5.17
2018-09-29T22:13:47.119Z,5.67
2018-09-29T22:16:15.889Z,4.77
2018-09-29T22:18:44.797Z,5.03
2018-09-29T22:21:13.794Z,4.63
2018-09-29T22:23:43.302Z,4.70
2018-09-29T22:26:13.014Z,5.37
2018-09-29T22:28:41.999Z,4.83
2018-09-29T22:31:10.992Z,5.27
2018-09-29T22:33:40.610Z,5.97
2018-09-29T22:36:09.594Z,4.90
2018-09-29T22:38:38.644Z,5.47
2018-09-29T22:41:08.195Z,5.60
2018-09-29T22:43:36.998Z,5.23
2018-09-29T22:46:05.658Z,5.60
2018-09-29T22:48:34.338Z,4.93
2018-09-29T22:51:03.553Z,5.23
2018-09-29T22:53:32.342Z,5.10
2018-09-29T22:56:01.856Z,5.13
2018-09-29T22:58:30.839Z,4.57
2018-09-29T23:01:00.142Z,4.77
2018-09-29T23:03:28.923Z,5.47
2018-09-29T23:05:57.819Z,4.97
2018-09-29T23:08:26.690Z,4.57
2018-09-29T23:10:55.805Z,5.70
2018-09-29T23:13:24.631Z,6.00
2018-09-29T23:15:53.492Z,6.13
2018-09-29T23:18:22.784Z,6.00
2018-09-29T23:20:51.986Z,6.00
2018-09-29T23:23:21.421Z,5.53
2018-09-29T23:25:50.690Z,4.90
2018-09-29T23:28:19.475Z,5.50
2018-09-29T23:30:48.139Z,5.30
2018-09-29T23:33:17.050Z,5.60
2018-09-29T23:35:46.562Z,5.50
2018-09-29T23:38:15.861Z,5.20
2018-09-29T23:40:44.759Z,5.23
2018-09-29T23:43:13.638Z,6.03
2018-09-29T23:45:42.411Z,5.43
2018-09-29T23:48:11.130Z,5.73
2018-09-29T23:50:40.616Z,5.37
2018-09-29T23:53:09.611Z,5.67
2018-09-29T23:55:38.695Z,5.63
2018-09-29T23:58:07.598Z,5.73
